sensor_id;sensor_type;location;lat;lon;timestamp;P1;durP1;ratioP1;P2;durP2;ratioP2
8594;SDS011;4335;48.860;9.198;2023-07-28T00:00:30;4.70;;;3.97;;
8594;SDS011;4335;48.860;9.198;2023-07-28T00:02:56;4.83;;;3.83;;
8594;SDS011;4335;48.860;9.198;2023-07-28T00:05:26;4.30;;;3.30;;
8594;SDS011;4335;48.860;9.198;2023-07-28T00:07:53;4.37;;;3.77;;
8594;SDS011;4335;48.860;9.198;2023-07-28T00:10:20;3.50;;;3.20;;
8594;SDS011;4335;48.860;9.198;2023-07-28T00:12:49;3.97;;;3.13;;
8594;SDS011;4335;48.860;9.198;2023-07-28T00:15:16;5.10;;;3.80;;
8594;SDS011;4335;48.860;9.198;2023-07-28T00:17:49;4.63;;;3.73;;
8594;SDS011;4335;48.860;9.198;2023-07-28T00:20:15;5.93;;;3.50;;
8594;SDS011;4335;48.860;9.198;2023-07-28T00:22:43;3.30;;;3.00;;
8594;SDS011;4335;48.860;9.198;2023-07-28T00:25:10;3.77;;;3.33;;
8594;SDS011;4335;48.860;9.198;2023-07-28T00:27:42;3.67;;;2.60;;
8594;SDS011;4335;48.860;9.198;2023-07-28T00:30:13;4.33;;;2.87;;
8594;SDS011;4335;48.860;9.198;2023-07-28T00:32:42;2.70;;;2.50;;
8594;SDS011;4335;48.860;9.198;2023-07-28T00:35:14;3.93;;;3.50;;
8594;SDS011;4335;48.860;9.198;2023-07-28T00:37:41;3.63;;;3.03;;
8594;SDS011;4335;48.860;9.198;2023-07-28T00:40:11;3.37;;;2.77;;
8594;SDS011;4335;48.860;9.198;2023-07-28T00:42:38;2.63;;;2.43;;
8594;SDS011;4335;48.860;9.198;2023-07-28T00:45:05;2.93;;;2.40;;
8594;SDS011;4335;48.860;9.198;2023-07-28T00:47:33;2.97;;;2.33;;
8594;SDS011;4335;48.860;9.198;2023-07-28T00:50:04;5.60;;;2.50;;
8594;SDS011;4335;48.860;9.198;2023-07-28T00:52:31;2.40;;;2.20;;
8594;SDS011;4335;48.860;9.198;2023-07-28T00:54:58;4.13;;;2.80;;
8594;SDS011;4335;48.860;9.198;2023-07-28T00:57:28;2.77;;;2.57;;
8594;SDS011;4335;48.860;9.198;2023-07-28T00:59:58;2.97;;;2.67;;
8594;SDS011;4335;48.860;9.198;2023-07-28T01:02:28;3.27;;;2.60;;
8594;SDS011;4335;48.860;9.198;2023-07-28T01:04:55;3.03;;;2.73;;
8594;SDS011;4335;48.860;9.198;2023-07-28T01:07:26;2.90;;;2.60;;
8594;SDS011;4335;48.860;9.198;2023-07-28T01:10:07;2.73;;;2.53;;
8594;SDS011;4335;48.860;9.198;2023-07-28T01:12:40;3.37;;;2.90;;
8594;SDS011;4335;48.860;9.198;2023-07-28T01:15:07;2.60;;;2.33;;
8594;SDS011;4335;48.860;9.198;2023-07-28T01:17:37;5.60;;;2.87;;
8594;SDS011;4335;48.860;9.198;2023-07-28T01:20:05;4.60;;;3.00;;
8594;SDS011;4335;48.860;9.198;2023-07-28T01:25:38;3.50;;;3.03;;
8594;SDS011;4335;48.860;9.198;2023-07-28T01:28:16;3.50;;;2.73;;
8594;SDS011;4335;48.860;9.198;2023-07-28T01:30:43;3.97;;;2.70;;
8594;SDS011;4335;48.860;9.198;2023-07-28T01:33:18;2.87;;;2.60;;
8594;SDS011;4335;48.860;9.198;2023-07-28T01:35:45;3.27;;;2.80;;
8594;SDS011;4335;48.860;9.198;2023-07-28T01:38:18;3.90;;;2.60;;
8594;SDS011;4335;48.860;9.198;2023-07-28T01:40:44;4.27;;;2.83;;
8594;SDS011;4335;48.860;9.198;2023-07-28T01:43:11;3.03;;;2.43;;
8594;SDS011;4335;48.860;9.198;2023-07-28T01:45:41;3.00;;;2.70;;
8594;SDS011;4335;48.860;9.198;2023-07-28T01:48:08;3.40;;;3.10;;
8594;SDS011;4335;48.860;9.198;2023-07-28T01:50:35;3.63;;;3.10;;
8594;SDS011;4335;48.860;9.198;2023-07-28T01:53:06;3.70;;;3.30;;
8594;SDS011;4335;48.860;9.198;2023-07-28T01:55:33;6.23;;;3.20;;
8594;SDS011;4335;48.860;9.198;2023-07-28T01:58:05;3.63;;;3.27;;
8594;SDS011;4335;48.860;9.198;2023-07-28T02:00:35;2.93;;;2.63;;
8594;SDS011;4335;48.860;9.198;2023-07-28T02:03:02;5.13;;;3.43;;
8594;SDS011;4335;48.860;9.198;2023-07-28T02:05:29;4.30;;;3.03;;
8594;SDS011;4335;48.860;9.198;2023-07-28T02:08:02;4.77;;;3.00;;
8594;SDS011;4335;48.860;9.198;2023-07-28T02:10:28;4.60;;;2.87;;
8594;SDS011;4335;48.860;9.198;2023-07-28T02:12:56;3.40;;;3.10;;
8594;SDS011;4335;48.860;9.198;2023-07-28T02:15:22;3.33;;;3.07;;
8594;SDS011;4335;48.860;9.198;2023-07-28T02:17:50;3.40;;;3.10;;
8594;SDS011;4335;48.860;9.198;2023-07-28T02:20:16;3.43;;;3.10;;
8594;SDS011;4335;48.860;9.198;2023-07-28T02:22:46;7.10;;;3.43;;
8594;SDS011;4335;48.860;9.198;2023-07-28T02:25:12;3.03;;;2.73;;
8594;SDS011;4335;48.860;9.198;2023-07-28T02:27:39;3.80;;;3.27;;
8594;SDS011;4335;48.860;9.198;2023-07-28T02:30:12;3.63;;;2.97;;
8594;SDS011;4335;48.860;9.198;2023-07-28T02:32:39;4.30;;;2.87;;
8594;SDS011;4335;48.860;9.198;2023-07-28T02:35:06;3.30;;;2.83;;
8594;SDS011;4335;48.860;9.198;2023-07-28T02:37:38;3.20;;;2.90;;
8594;SDS011;4335;48.860;9.198;2023-07-28T02:40:14;2.87;;;2.60;;
8594;SDS011;4335;48.860;9.198;2023-07-28T02:42:46;2.60;;;2.40;;
8594;SDS011;4335;48.860;9.198;2023-07-28T02:45:13;3.60;;;3.30;;
8594;SDS011;4335;48.860;9.198;2023-07-28T02:47:40;4.07;;;3.07;;
8594;SDS011;4335;48.860;9.198;2023-07-28T02:50:16;3.90;;;2.77;;
8594;SDS011;4335;48.860;9.198;2023-07-28T02:52:49;3.47;;;2.63;;
8594;SDS011;4335;48.860;9.198;2023-07-28T02:55:15;3.17;;;2.87;;
8594;SDS011;4335;48.860;9.198;2023-07-28T02:57:42;3.17;;;2.87;;
8594;SDS011;4335;48.860;9.198;2023-07-28T03:00:12;3.30;;;2.87;;
8594;SDS011;4335;48.860;9.198;2023-07-28T03:02:39;3.83;;;2.60;;
8594;SDS011;4335;48.860;9.198;2023-07-28T03:05:06;3.07;;;2.77;;
8594;SDS011;4335;48.860;9.198;2023-07-28T03:07:34;4.07;;;3.00;;
8594;SDS011;4335;48.860;9.198;2023-07-28T03:10:16;4.43;;;2.70;;
8594;SDS011;4335;48.860;9.198;2023-07-28T03:12:45;2.50;;;2.30;;
8594;SDS011;4335;48.860;9.198;2023-07-28T03:15:12;5.17;;;3.13;;
8594;SDS011;4335;48.860;9.198;2023-07-28T03:17:39;4.37;;;3.07;;
8594;SDS011;4335;48.860;9.198;2023-07-28T03:20:08;4.37;;;2.73;;
8594;SDS011;4335;48.860;9.198;2023-07-28T03:22:43;4.53;;;2.60;;
8594;SDS011;4335;48.860;9.198;2023-07-28T03:25:10;3.80;;;2.80;;
8594;SDS011;4335;48.860;9.198;2023-07-28T03:27:38;6.10;;;3.53;;
8594;SDS011;4335;48.860;9.198;2023-07-28T03:30:07;3.73;;;2.90;;
8594;SDS011;4335;48.860;9.198;2023-07-28T03:32:38;4.83;;;2.73;;
8594;SDS011;4335;48.860;9.198;2023-07-28T03:35:06;2.67;;;2.43;;
8594;SDS011;4335;48.860;9.198;2023-07-28T03:37:34;5.07;;;2.93;;
8594;SDS011;4335;48.860;9.198;2023-07-28T03:40:04;3.10;;;2.60;;
8594;SDS011;4335;48.860;9.198;2023-07-28T03:42:35;3.03;;;2.70;;
8594;SDS011;4335;48.860;9.198;2023-07-28T03:45:10;3.10;;;2.73;;
8594;SDS011;4335;48.860;9.198;2023-07-28T03:47:40;4.30;;;3.00;;
8594;SDS011;4335;48.860;9.198;2023-07-28T03:50:07;2.90;;;2.53;;
8594;SDS011;4335;48.860;9.198;2023-07-28T03:52:37;4.50;;;2.63;;
8594;SDS011;4335;48.860;9.198;2023-07-28T03:55:04;3.07;;;2.77;;
8594;SDS011;4335;48.860;9.198;2023-07-28T03:57:31;4.03;;;3.40;;
8594;SDS011;4335;48.860;9.198;2023-07-28T03:59:58;8.73;;;3.53;;
8594;SDS011;4335;48.860;9.198;2023-07-28T04:02:30;3.70;;;3.30;;
8594;SDS011;4335;48.860;9.198;2023-07-28T04:04:57;3.80;;;3.30;;
8594;SDS011;4335;48.860;9.198;2023-07-28T04:07:24;3.07;;;2.77;;
8594;SDS011;4335;48.860;9.198;2023-07-28T04:10:01;4.30;;;3.20;;
8594;SDS011;4335;48.860;9.198;2023-07-28T04:12:30;6.47;;;3.47;;
8594;SDS011;4335;48.860;9.198;2023-07-28T04:14:59;5.03;;;2.97;;
8594;SDS011;4335;48.860;9.198;2023-07-28T04:17:27;3.50;;;3.07;;
8594;SDS011;4335;48.860;9.198;2023-07-28T04:19:53;5.03;;;3.20;;
8594;SDS011;4335;48.860;9.198;2023-07-28T04:22:20;3.13;;;2.80;;
8594;SDS011;4335;48.860;9.198;2023-07-28T04:24:47;3.53;;;3.10;;
8594;SDS011;4335;48.860;9.198;2023-07-28T04:27:14;4.20;;;3.10;;
8594;SDS011;4335;48.860;9.198;2023-07-28T04:29:47;4.40;;;3.10;;
8594;SDS011;4335;48.860;9.198;2023-07-28T04:32:14;4.40;;;3.20;;
8594;SDS011;4335;48.860;9.198;2023-07-28T04:34:40;3.70;;;3.20;;
8594;SDS011;4335;48.860;9.198;2023-07-28T04:37:10;3.70;;;3.00;;
8594;SDS011;4335;48.860;9.198;2023-07-28T04:39:36;3.10;;;2.67;;
8594;SDS011;4335;48.860;9.198;2023-07-28T04:42:09;3.97;;;3.13;;
8594;SDS011;4335;48.860;9.198;2023-07-28T04:44:39;3.00;;;2.70;;
8594;SDS011;4335;48.860;9.198;2023-07-28T04:47:06;4.97;;;3.40;;
8594;SDS011;4335;48.860;9.198;2023-07-28T04:49:32;3.53;;;2.63;;
8594;SDS011;4335;48.860;9.198;2023-07-28T04:51:59;4.17;;;3.30;;
8594;SDS011;4335;48.860;9.198;2023-07-28T04:54:29;4.93;;;3.17;;
8594;SDS011;4335;48.860;9.198;2023-07-28T04:56:56;3.10;;;2.80;;
8594;SDS011;4335;48.860;9.198;2023-07-28T04:59:26;4.33;;;3.37;;
8594;SDS011;4335;48.860;9.198;2023-07-28T05:01:53;4.87;;;3.07;;
8594;SDS011;4335;48.860;9.198;2023-07-28T05:04:20;4.73;;;3.23;;
8594;SDS011;4335;48.860;9.198;2023-07-28T05:06:52;5.07;;;3.50;;
8594;SDS011;4335;48.860;9.198;2023-07-28T05:09:19;5.30;;;3.83;;
8594;SDS011;4335;48.860;9.198;2023-07-28T05:11:46;4.03;;;3.43;;
8594;SDS011;4335;48.860;9.198;2023-07-28T05:14:12;5.13;;;3.10;;
8594;SDS011;4335;48.860;9.198;2023-07-28T05:16:39;4.73;;;3.50;;
8594;SDS011;4335;48.860;9.198;2023-07-28T05:19:07;4.90;;;3.50;;
8594;SDS011;4335;48.860;9.198;2023-07-28T05:21:36;4.50;;;3.20;;
8594;SDS011;4335;48.860;9.198;2023-07-28T05:24:09;8.07;;;4.43;;
8594;SDS011;4335;48.860;9.198;2023-07-28T05:26:39;5.80;;;4.80;;
8594;SDS011;4335;48.860;9.198;2023-07-28T05:29:05;10.97;;;6.57;;
8594;SDS011;4335;48.860;9.198;2023-07-28T05:31:32;8.03;;;5.43;;
8594;SDS011;4335;48.860;9.198;2023-07-28T05:33:59;7.90;;;5.40;;
8594;SDS011;4335;48.860;9.198;2023-07-28T05:36:26;7.90;;;5.10;;
8594;SDS011;4335;48.860;9.198;2023-07-28T05:38:53;5.37;;;4.40;;
8594;SDS011;4335;48.860;9.198;2023-07-28T05:41:24;6.27;;;4.37;;
8594;SDS011;4335;48.860;9.198;2023-07-28T05:43:57;10.53;;;4.57;;
8594;SDS011;4335;48.860;9.198;2023-07-28T05:46:24;4.60;;;3.20;;
8594;SDS011;4335;48.860;9.198;2023-07-28T05:48:50;4.63;;;3.50;;
8594;SDS011;4335;48.860;9.198;2023-07-28T05:51:19;5.30;;;3.73;;
8594;SDS011;4335;48.860;9.198;2023-07-28T05:53:47;4.97;;;3.53;;
8594;SDS011;4335;48.860;9.198;2023-07-28T05:56:14;6.27;;;3.77;;
8594;SDS011;4335;48.860;9.198;2023-07-28T05:58:46;6.37;;;4.80;;
8594;SDS011;4335;48.860;9.198;2023-07-28T06:01:16;6.43;;;4.47;;
8594;SDS011;4335;48.860;9.198;2023-07-28T06:03:43;6.70;;;4.57;;
8594;SDS011;4335;48.860;9.198;2023-07-28T06:06:10;6.97;;;4.57;;
8594;SDS011;4335;48.860;9.198;2023-07-28T06:08:40;5.43;;;4.30;;
8594;SDS011;4335;48.860;9.198;2023-07-28T06:11:17;6.93;;;4.73;;
8594;SDS011;4335;48.860;9.198;2023-07-28T06:13:47;6.53;;;5.10;;
8594;SDS011;4335;48.860;9.198;2023-07-28T06:16:13;7.83;;;4.93;;
8594;SDS011;4335;48.860;9.198;2023-07-28T06:18:43;5.67;;;4.60;;
8594;SDS011;4335;48.860;9.198;2023-07-28T06:21:10;6.30;;;4.50;;
8594;SDS011;4335;48.860;9.198;2023-07-28T06:23:39;7.87;;;4.70;;
8594;SDS011;4335;48.860;9.198;2023-07-28T06:26:06;6.83;;;4.40;;
8594;SDS011;4335;48.860;9.198;2023-07-28T06:28:33;7.97;;;4.83;;
8594;SDS011;4335;48.860;9.198;2023-07-28T06:31:00;8.50;;;5.00;;
8594;SDS011;4335;48.860;9.198;2023-07-28T06:33:28;6.30;;;5.00;;
8594;SDS011;4335;48.860;9.198;2023-07-28T06:35:54;7.87;;;5.53;;
8594;SDS011;4335;48.860;9.198;2023-07-28T06:38:22;7.23;;;5.10;;
8594;SDS011;4335;48.860;9.198;2023-07-28T06:40:49;5.53;;;4.17;;
8594;SDS011;4335;48.860;9.198;2023-07-28T06:43:17;5.27;;;4.63;;
8594;SDS011;4335;48.860;9.198;2023-07-28T06:45:49;11.90;;;5.57;;
8594;SDS011;4335;48.860;9.198;2023-07-28T06:48:19;13.47;;;11.03;;
8594;SDS011;4335;48.860;9.198;2023-07-28T06:50:49;16.13;;;13.10;;
8594;SDS011;4335;48.860;9.198;2023-07-28T06:53:20;11.80;;;8.93;;
8594;SDS011;4335;48.860;9.198;2023-07-28T06:55:50;9.90;;;6.23;;
8594;SDS011;4335;48.860;9.198;2023-07-28T06:58:17;7.70;;;4.53;;
8594;SDS011;4335;48.860;9.198;2023-07-28T07:00:43;6.07;;;4.20;;
8594;SDS011;4335;48.860;9.198;2023-07-28T07:03:13;6.50;;;4.97;;
8594;SDS011;4335;48.860;9.198;2023-07-28T07:05:40;6.83;;;4.67;;
8594;SDS011;4335;48.860;9.198;2023-07-28T07:08:08;9.20;;;4.73;;
8594;SDS011;4335;48.860;9.198;2023-07-28T07:10:39;8.43;;;5.07;;
8594;SDS011;4335;48.860;9.198;2023-07-28T07:13:06;4.87;;;4.30;;
8594;SDS011;4335;48.860;9.198;2023-07-28T07:15:33;7.97;;;4.70;;
8594;SDS011;4335;48.860;9.198;2023-07-28T07:18:04;6.63;;;4.33;;
8594;SDS011;4335;48.860;9.198;2023-07-28T07:20:33;4.53;;;4.13;;
8594;SDS011;4335;48.860;9.198;2023-07-28T07:23:02;7.97;;;5.43;;
8594;SDS011;4335;48.860;9.198;2023-07-28T07:25:29;6.30;;;4.70;;
8594;SDS011;4335;48.860;9.198;2023-07-28T07:27:58;5.83;;;4.33;;
8594;SDS011;4335;48.860;9.198;2023-07-28T07:30:25;6.00;;;4.40;;
8594;SDS011;4335;48.860;9.198;2023-07-28T07:33:05;5.77;;;4.33;;
8594;SDS011;4335;48.860;9.198;2023-07-28T07:35:35;5.93;;;5.03;;
8594;SDS011;4335;48.860;9.198;2023-07-28T07:38:03;5.67;;;4.80;;
8594;SDS011;4335;48.860;9.198;2023-07-28T07:40:33;7.10;;;4.90;;
8594;SDS011;4335;48.860;9.198;2023-07-28T07:43:03;8.37;;;5.10;;
8594;SDS011;4335;48.860;9.198;2023-07-28T07:45:31;6.93;;;4.40;;
8594;SDS011;4335;48.860;9.198;2023-07-28T07:47:57;6.63;;;4.97;;
8594;SDS011;4335;48.860;9.198;2023-07-28T07:50:29;5.83;;;4.53;;
8594;SDS011;4335;48.860;9.198;2023-07-28T07:52:56;9.27;;;5.13;;
8594;SDS011;4335;48.860;9.198;2023-07-28T07:55:22;7.83;;;5.13;;
8594;SDS011;4335;48.860;9.198;2023-07-28T07:57:56;9.63;;;4.90;;
8594;SDS011;4335;48.860;9.198;2023-07-28T08:00:23;8.07;;;5.00;;
8594;SDS011;4335;48.860;9.198;2023-07-28T08:02:49;8.63;;;5.10;;
8594;SDS011;4335;48.860;9.198;2023-07-28T08:05:19;7.57;;;4.60;;
8594;SDS011;4335;48.860;9.198;2023-07-28T08:07:46;8.60;;;5.70;;
8594;SDS011;4335;48.860;9.198;2023-07-28T08:10:13;8.67;;;5.70;;
8594;SDS011;4335;48.860;9.198;2023-07-28T08:12:45;7.47;;;5.17;;
8594;SDS011;4335;48.860;9.198;2023-07-28T08:15:15;7.73;;;5.63;;
8594;SDS011;4335;48.860;9.198;2023-07-28T08:17:42;7.90;;;6.53;;
8594;SDS011;4335;48.860;9.198;2023-07-28T08:20:09;9.57;;;5.80;;
8594;SDS011;4335;48.860;9.198;2023-07-28T08:22:41;7.57;;;4.87;;
8594;SDS011;4335;48.860;9.198;2023-07-28T08:25:11;7.67;;;4.63;;
8594;SDS011;4335;48.860;9.198;2023-07-28T08:27:43;6.27;;;4.83;;
8594;SDS011;4335;48.860;9.198;2023-07-28T08:30:10;6.93;;;5.60;;
8594;SDS011;4335;48.860;9.198;2023-07-28T08:32:40;6.93;;;5.00;;
8594;SDS011;4335;48.860;9.198;2023-07-28T08:35:07;5.80;;;5.20;;
8594;SDS011;4335;48.860;9.198;2023-07-28T08:37:40;7.00;;;5.17;;
8594;SDS011;4335;48.860;9.198;2023-07-28T08:40:07;5.30;;;4.80;;
8594;SDS011;4335;48.860;9.198;2023-07-28T08:42:36;7.30;;;5.70;;
8594;SDS011;4335;48.860;9.198;2023-07-28T08:45:07;7.33;;;4.80;;
8594;SDS011;4335;48.860;9.198;2023-07-28T08:47:43;6.57;;;4.97;;
8594;SDS011;4335;48.860;9.198;2023-07-28T08:50:13;5.40;;;4.90;;
8594;SDS011;4335;48.860;9.198;2023-07-28T08:52:43;7.77;;;4.93;;
8594;SDS011;4335;48.860;9.198;2023-07-28T08:55:10;5.30;;;4.73;;
8594;SDS011;4335;48.860;9.198;2023-07-28T08:57:45;6.03;;;4.20;;
8594;SDS011;4335;48.860;9.198;2023-07-28T09:00:12;5.37;;;4.40;;
8594;SDS011;4335;48.860;9.198;2023-07-28T09:02:39;7.53;;;4.77;;
8594;SDS011;4335;48.860;9.198;2023-07-28T09:05:07;6.40;;;4.83;;
8594;SDS011;4335;48.860;9.198;2023-07-28T09:07:46;6.67;;;4.83;;
8594;SDS011;4335;48.860;9.198;2023-07-28T09:10:19;8.50;;;5.30;;
8594;SDS011;4335;48.860;9.198;2023-07-28T09:12:49;6.13;;;5.50;;
8594;SDS011;4335;48.860;9.198;2023-07-28T09:15:19;5.07;;;4.47;;
8594;SDS011;4335;48.860;9.198;2023-07-28T09:17:46;7.07;;;4.60;;
8594;SDS011;4335;48.860;9.198;2023-07-28T09:20:14;7.40;;;4.60;;
8594;SDS011;4335;48.860;9.198;2023-07-28T09:22:44;5.83;;;4.87;;
8594;SDS011;4335;48.860;9.198;2023-07-28T09:25:15;5.70;;;4.17;;
8594;SDS011;4335;48.860;9.198;2023-07-28T09:27:49;4.33;;;3.93;;
8594;SDS011;4335;48.860;9.198;2023-07-28T09:30:17;5.53;;;3.83;;
8594;SDS011;4335;48.860;9.198;2023-07-28T09:32:50;5.07;;;3.90;;
8594;SDS011;4335;48.860;9.198;2023-07-28T09:35:24;3.23;;;2.93;;
8594;SDS011;4335;48.860;9.198;2023-07-28T09:37:51;4.63;;;3.30;;
8594;SDS011;4335;48.860;9.198;2023-07-28T09:40:21;3.67;;;2.90;;
8594;SDS011;4335;48.860;9.198;2023-07-28T09:42:53;3.90;;;2.57;;
8594;SDS011;4335;48.860;9.198;2023-07-28T09:45:20;3.17;;;2.10;;
8594;SDS011;4335;48.860;9.198;2023-07-28T09:47:47;2.53;;;2.33;;
8594;SDS011;4335;48.860;9.198;2023-07-28T09:50:23;2.87;;;2.67;;
8594;SDS011;4335;48.860;9.198;2023-07-28T09:52:53;3.80;;;3.07;;
8594;SDS011;4335;48.860;9.198;2023-07-28T09:55:24;2.47;;;2.03;;
8594;SDS011;4335;48.860;9.198;2023-07-28T09:57:52;2.33;;;2.00;;
8594;SDS011;4335;48.860;9.198;2023-07-28T10:00:21;2.90;;;2.50;;
8594;SDS011;4335;48.860;9.198;2023-07-28T10:02:51;3.73;;;2.93;;
8594;SDS011;4335;48.860;9.198;2023-07-28T10:05:19;3.20;;;2.47;;
8594;SDS011;4335;48.860;9.198;2023-07-28T10:07:47;6.37;;;3.40;;
8594;SDS011;4335;48.860;9.198;2023-07-28T10:10:15;2.93;;;2.73;;
8594;SDS011;4335;48.860;9.198;2023-07-28T10:12:42;4.97;;;2.90;;
8594;SDS011;4335;48.860;9.198;2023-07-28T10:15:13;3.07;;;2.77;;
8594;SDS011;4335;48.860;9.198;2023-07-28T10:17:42;3.13;;;2.80;;
8594;SDS011;4335;48.860;9.198;2023-07-28T10:23:03;3.83;;;3.43;;
8594;SDS011;4335;48.860;9.198;2023-07-28T10:25:35;2.67;;;2.47;;
8594;SDS011;4335;48.860;9.198;2023-07-28T10:28:03;3.40;;;3.10;;
8594;SDS011;4335;48.860;9.198;2023-07-28T10:30:50;3.20;;;2.90;;
8594;SDS011;4335;48.860;9.198;2023-07-28T10:33:26;3.80;;;2.90;;
8594;SDS011;4335;48.860;9.198;2023-07-28T10:35:54;4.03;;;3.43;;
8594;SDS011;4335;48.860;9.198;2023-07-28T10:38:28;3.83;;;3.13;;
8594;SDS011;4335;48.860;9.198;2023-07-28T10:41:10;3.33;;;3.00;;
8594;SDS011;4335;48.860;9.198;2023-07-28T10:43:42;4.67;;;3.13;;
8594;SDS011;4335;48.860;9.198;2023-07-28T10:46:14;3.70;;;3.20;;
8594;SDS011;4335;48.860;9.198;2023-07-28T10:48:57;10.03;;;6.60;;
8594;SDS011;4335;48.860;9.198;2023-07-28T10:51:40;3.17;;;2.77;;
8594;SDS011;4335;48.860;9.198;2023-07-28T10:54:06;4.80;;;3.60;;
8594;SDS011;4335;48.860;9.198;2023-07-28T10:56:40;5.60;;;4.00;;
8594;SDS011;4335;48.860;9.198;2023-07-28T10:59:07;3.17;;;2.63;;
8594;SDS011;4335;48.860;9.198;2023-07-28T11:01:34;4.90;;;3.10;;
8594;SDS011;4335;48.860;9.198;2023-07-28T11:04:06;4.10;;;3.60;;
8594;SDS011;4335;48.860;9.198;2023-07-28T11:06:35;4.07;;;3.27;;
8594;SDS011;4335;48.860;9.198;2023-07-28T11:09:02;4.10;;;3.20;;
8594;SDS011;4335;48.860;9.198;2023-07-28T11:11:31;3.53;;;3.07;;
8594;SDS011;4335;48.860;9.198;2023-07-28T11:13:58;3.80;;;2.90;;
8594;SDS011;4335;48.860;9.198;2023-07-28T11:16:25;3.87;;;3.03;;
8594;SDS011;4335;48.860;9.198;2023-07-28T11:19:00;3.13;;;2.83;;
8594;SDS011;4335;48.860;9.198;2023-07-28T11:21:27;7.03;;;6.23;;
8594;SDS011;4335;48.860;9.198;2023-07-28T11:23:57;4.30;;;3.90;;
8594;SDS011;4335;48.860;9.198;2023-07-28T11:26:26;4.20;;;3.20;;
8594;SDS011;4335;48.860;9.198;2023-07-28T11:28:58;8.73;;;7.83;;
8594;SDS011;4335;48.860;9.198;2023-07-28T11:31:32;5.07;;;4.10;;
8594;SDS011;4335;48.860;9.198;2023-07-28T11:34:00;3.73;;;3.30;;
8594;SDS011;4335;48.860;9.198;2023-07-28T11:36:27;4.13;;;3.57;;
8594;SDS011;4335;48.860;9.198;2023-07-28T11:38:57;3.43;;;3.13;;
8594;SDS011;4335;48.860;9.198;2023-07-28T11:41:30;3.43;;;2.60;;
8594;SDS011;4335;48.860;9.198;2023-07-28T11:43:59;3.43;;;2.57;;
8594;SDS011;4335;48.860;9.198;2023-07-28T11:46:32;3.27;;;2.07;;
8594;SDS011;4335;48.860;9.198;2023-07-28T11:49:10;1.80;;;1.50;;
8594;SDS011;4335;48.860;9.198;2023-07-28T11:51:39;2.77;;;1.47;;
8594;SDS011;4335;48.860;9.198;2023-07-28T11:54:11;2.13;;;1.70;;
8594;SDS011;4335;48.860;9.198;2023-07-28T11:56:39;2.10;;;1.77;;
8594;SDS011;4335;48.860;9.198;2023-07-28T11:59:06;1.70;;;1.60;;
8594;SDS011;4335;48.860;9.198;2023-07-28T12:01:33;2.00;;;1.80;;
8594;SDS011;4335;48.860;9.198;2023-07-28T12:07:00;2.57;;;2.10;;
8594;SDS011;4335;48.860;9.198;2023-07-28T12:09:28;2.40;;;2.20;;
8594;SDS011;4335;48.860;9.198;2023-07-28T12:11:58;3.35;;;2.05;;
8594;SDS011;4335;48.860;9.198;2023-07-28T12:14:32;2.43;;;1.90;;
8594;SDS011;4335;48.860;9.198;2023-07-28T12:17:02;2.27;;;2.07;;
8594;SDS011;4335;48.860;9.198;2023-07-28T12:19:40;1.70;;;1.60;;
8594;SDS011;4335;48.860;9.198;2023-07-28T12:22:08;2.27;;;2.03;;
8594;SDS011;4335;48.860;9.198;2023-07-28T12:24:35;2.20;;;2.00;;
8594;SDS011;4335;48.860;9.198;2023-07-28T12:27:02;3.77;;;2.40;;
8594;SDS011;4335;48.860;9.198;2023-07-28T12:29:29;2.40;;;2.20;;
8594;SDS011;4335;48.860;9.198;2023-07-28T12:31:56;3.00;;;2.70;;
8594;SDS011;4335;48.860;9.198;2023-07-28T12:34:28;2.90;;;2.60;;
8594;SDS011;4335;48.860;9.198;2023-07-28T12:36:56;2.80;;;2.33;;
8594;SDS011;4335;48.860;9.198;2023-07-28T12:39:22;2.47;;;2.27;;
8594;SDS011;4335;48.860;9.198;2023-07-28T12:41:49;3.27;;;2.33;;
8594;SDS011;4335;48.860;9.198;2023-07-28T12:44:19;3.20;;;2.80;;
8594;SDS011;4335;48.860;9.198;2023-07-28T12:46:45;4.63;;;2.77;;
8594;SDS011;4335;48.860;9.198;2023-07-28T12:49:19;4.93;;;4.13;;
8594;SDS011;4335;48.860;9.198;2023-07-28T12:51:51;3.40;;;3.10;;
8594;SDS011;4335;48.860;9.198;2023-07-28T12:54:19;4.17;;;2.50;;
8594;SDS011;4335;48.860;9.198;2023-07-28T12:56:47;2.67;;;2.37;;
8594;SDS011;4335;48.860;9.198;2023-07-28T12:59:14;4.80;;;3.67;;
8594;SDS011;4335;48.860;9.198;2023-07-28T13:01:41;2.97;;;2.70;;
8594;SDS011;4335;48.860;9.198;2023-07-28T13:04:07;3.00;;;2.70;;
8594;SDS011;4335;48.860;9.198;2023-07-28T13:06:37;2.80;;;2.60;;
8594;SDS011;4335;48.860;9.198;2023-07-28T13:09:08;2.73;;;2.53;;
8594;SDS011;4335;48.860;9.198;2023-07-28T13:11:36;3.53;;;3.23;;
8594;SDS011;4335;48.860;9.198;2023-07-28T13:14:03;3.93;;;3.50;;
8594;SDS011;4335;48.860;9.198;2023-07-28T13:16:38;3.10;;;2.80;;
8594;SDS011;4335;48.860;9.198;2023-07-28T13:19:05;3.13;;;2.47;;
8594;SDS011;4335;48.860;9.198;2023-07-28T13:21:35;2.80;;;2.50;;
8594;SDS011;4335;48.860;9.198;2023-07-28T13:24:01;4.03;;;2.87;;
8594;SDS011;4335;48.860;9.198;2023-07-28T13:26:28;3.97;;;2.97;;
8594;SDS011;4335;48.860;9.198;2023-07-28T13:28:56;3.53;;;2.70;;
8594;SDS011;4335;48.860;9.198;2023-07-28T13:31:25;4.63;;;2.80;;
8594;SDS011;4335;48.860;9.198;2023-07-28T13:33:54;5.60;;;4.30;;
8594;SDS011;4335;48.860;9.198;2023-07-28T13:36:21;8.37;;;4.90;;
8594;SDS011;4335;48.860;9.198;2023-07-28T13:38:48;16.07;;;12.17;;
8594;SDS011;4335;48.860;9.198;2023-07-28T13:41:14;5.73;;;3.80;;
8594;SDS011;4335;48.860;9.198;2023-07-28T13:43:41;4.53;;;3.67;;
8594;SDS011;4335;48.860;9.198;2023-07-28T13:46:08;7.90;;;4.27;;
8594;SDS011;4335;48.860;9.198;2023-07-28T13:48:36;12.63;;;9.83;;
8594;SDS011;4335;48.860;9.198;2023-07-28T13:51:04;7.97;;;6.47;;
8594;SDS011;4335;48.860;9.198;2023-07-28T13:53:31;8.13;;;5.87;;
8594;SDS011;4335;48.860;9.198;2023-07-28T13:56:09;12.63;;;9.53;;
8594;SDS011;4335;48.860;9.198;2023-07-28T13:58:39;6.17;;;5.57;;
8594;SDS011;4335;48.860;9.198;2023-07-28T14:01:06;13.80;;;11.27;;
8594;SDS011;4335;48.860;9.198;2023-07-28T14:03:39;9.67;;;7.43;;
8594;SDS011;4335;48.860;9.198;2023-07-28T14:06:06;18.93;;;13.23;;
8594;SDS011;4335;48.860;9.198;2023-07-28T14:08:33;7.47;;;5.97;;
8594;SDS011;4335;48.860;9.198;2023-07-28T14:11:00;6.63;;;5.47;;
8594;SDS011;4335;48.860;9.198;2023-07-28T14:13:39;5.33;;;3.93;;
8594;SDS011;4335;48.860;9.198;2023-07-28T14:16:08;6.93;;;4.03;;
8594;SDS011;4335;48.860;9.198;2023-07-28T14:18:35;7.67;;;5.60;;
8594;SDS011;4335;48.860;9.198;2023-07-28T14:21:05;4.43;;;3.80;;
8594;SDS011;4335;48.860;9.198;2023-07-28T14:23:32;4.47;;;3.57;;
8594;SDS011;4335;48.860;9.198;2023-07-28T14:26:02;4.13;;;3.67;;
8594;SDS011;4335;48.860;9.198;2023-07-28T14:28:29;7.43;;;4.20;;
8594;SDS011;4335;48.860;9.198;2023-07-28T14:30:55;8.10;;;6.10;;
8594;SDS011;4335;48.860;9.198;2023-07-28T14:33:22;9.77;;;6.97;;
8594;SDS011;4335;48.860;9.198;2023-07-28T14:35:54;7.53;;;5.77;;
8594;SDS011;4335;48.860;9.198;2023-07-28T14:38:22;6.63;;;4.83;;
8594;SDS011;4335;48.860;9.198;2023-07-28T14:40:49;6.80;;;4.80;;
8594;SDS011;4335;48.860;9.198;2023-07-28T14:43:17;4.73;;;4.23;;
8594;SDS011;4335;48.860;9.198;2023-07-28T14:45:44;4.03;;;3.63;;
8594;SDS011;4335;48.860;9.198;2023-07-28T14:48:10;4.40;;;3.73;;
8594;SDS011;4335;48.860;9.198;2023-07-28T14:50:39;5.90;;;3.93;;
8594;SDS011;4335;48.860;9.198;2023-07-28T14:55:54;4.40;;;4.00;;
8594;SDS011;4335;48.860;9.198;2023-07-28T14:58:21;5.73;;;4.20;;
8594;SDS011;4335;48.860;9.198;2023-07-28T15:00:51;5.30;;;3.87;;
8594;SDS011;4335;48.860;9.198;2023-07-28T15:03:17;6.47;;;5.10;;
8594;SDS011;4335;48.860;9.198;2023-07-28T15:05:48;5.43;;;4.30;;
8594;SDS011;4335;48.860;9.198;2023-07-28T15:08:14;4.97;;;4.30;;
8594;SDS011;4335;48.860;9.198;2023-07-28T15:10:42;5.07;;;4.07;;
8594;SDS011;4335;48.860;9.198;2023-07-28T15:13:08;4.73;;;4.00;;
8594;SDS011;4335;48.860;9.198;2023-07-28T15:15:41;6.80;;;4.13;;
8594;SDS011;4335;48.860;9.198;2023-07-28T15:18:17;4.03;;;3.63;;
8594;SDS011;4335;48.860;9.198;2023-07-28T15:20:44;4.90;;;3.73;;
8594;SDS011;4335;48.860;9.198;2023-07-28T15:23:13;4.07;;;3.67;;
8594;SDS011;4335;48.860;9.198;2023-07-28T15:25:44;4.53;;;4.10;;
8594;SDS011;4335;48.860;9.198;2023-07-28T15:28:15;4.90;;;3.90;;
8594;SDS011;4335;48.860;9.198;2023-07-28T15:30:41;6.17;;;4.63;;
8594;SDS011;4335;48.860;9.198;2023-07-28T15:33:11;5.57;;;4.67;;
8594;SDS011;4335;48.860;9.198;2023-07-28T15:35:38;5.77;;;4.30;;
8594;SDS011;4335;48.860;9.198;2023-07-28T15:38:07;6.90;;;4.60;;